sensor_id;sensor_type;location;lat;lon;timestamp;P1;durP1;ratioP1;P2;durP2;ratioP2
15402;SDS011;7799;53.478;10.170;2023-04-15T00:00:41;1.90;;;1.80;;
15402;SDS011;7799;53.478;10.170;2023-04-15T00:03:07;1.83;;;1.73;;
15402;SDS011;7799;53.478;10.170;2023-04-15T00:05:34;1.90;;;1.80;;
15402;SDS011;7799;53.478;10.170;2023-04-15T00:08:03;1.50;;;1.40;;
15402;SDS011;7799;53.478;10.170;2023-04-15T00:10:30;1.70;;;1.60;;
15402;SDS011;7799;53.478;10.170;2023-04-15T00:12:57;1.83;;;1.73;;
15402;SDS011;7799;53.478;10.170;2023-04-15T00:15:24;1.70;;;1.60;;
15402;SDS011;7799;53.478;10.170;2023-04-15T00:17:51;1.60;;;1.50;;
15402;SDS011;7799;53.478;10.170;2023-04-15T00:20:18;1.17;;;1.17;;
15402;SDS011;7799;53.478;10.170;2023-04-15T00:22:45;1.50;;;1.40;;
15402;SDS011;7799;53.478;10.170;2023-04-15T00:25:13;1.60;;;1.50;;
15402;SDS011;7799;53.478;10.170;2023-04-15T00:27:40;1.50;;;1.40;;
15402;SDS011;7799;53.478;10.170;2023-04-15T00:30:08;1.50;;;1.40;;
15402;SDS011;7799;53.478;10.170;2023-04-15T00:32:35;1.47;;;1.37;;
15402;SDS011;7799;53.478;10.170;2023-04-15T00:35:02;1.83;;;1.50;;
15402;SDS011;7799;53.478;10.170;2023-04-15T00:37:29;1.30;;;1.20;;
15402;SDS011;7799;53.478;10.170;2023-04-15T00:39:56;1.60;;;1.50;;
15402;SDS011;7799;53.478;10.170;2023-04-15T00:42:25;1.67;;;1.57;;
15402;SDS011;7799;53.478;10.170;2023-04-15T00:44:52;2.10;;;1.90;;
15402;SDS011;7799;53.478;10.170;2023-04-15T00:47:20;1.73;;;1.63;;
15402;SDS011;7799;53.478;10.170;2023-04-15T00:49:47;1.70;;;1.60;;
15402;SDS011;7799;53.478;10.170;2023-04-15T00:52:14;2.30;;;2.10;;
15402;SDS011;7799;53.478;10.170;2023-04-15T00:54:41;1.67;;;1.57;;
15402;SDS011;7799;53.478;10.170;2023-04-15T00:57:07;1.50;;;1.40;;
15402;SDS011;7799;53.478;10.170;2023-04-15T00:59:35;1.50;;;1.40;;
15402;SDS011;7799;53.478;10.170;2023-04-15T01:02:02;1.40;;;1.30;;
15402;SDS011;7799;53.478;10.170;2023-04-15T01:04:29;1.30;;;1.17;;
15402;SDS011;7799;53.478;10.170;2023-04-15T01:06:56;1.30;;;1.20;;
15402;SDS011;7799;53.478;10.170;2023-04-15T01:09:23;1.20;;;1.10;;
15402;SDS011;7799;53.478;10.170;2023-04-15T01:11:50;1.50;;;1.40;;
15402;SDS011;7799;53.478;10.170;2023-04-15T01:14:16;1.60;;;1.50;;
15402;SDS011;7799;53.478;10.170;2023-04-15T01:16:45;1.50;;;1.40;;
15402;SDS011;7799;53.478;10.170;2023-04-15T01:19:11;1.40;;;1.30;;
15402;SDS011;7799;53.478;10.170;2023-04-15T01:21:40;1.77;;;1.60;;
15402;SDS011;7799;53.478;10.170;2023-04-15T01:24:08;1.87;;;1.70;;
15402;SDS011;7799;53.478;10.170;2023-04-15T01:26:37;1.73;;;1.63;;
15402;SDS011;7799;53.478;10.170;2023-04-15T01:29:06;1.57;;;1.47;;
15402;SDS011;7799;53.478;10.170;2023-04-15T01:31:33;1.40;;;1.30;;
15402;SDS011;7799;53.478;10.170;2023-04-15T01:34:00;2.27;;;1.50;;
15402;SDS011;7799;53.478;10.170;2023-04-15T01:36:27;1.80;;;1.70;;
15402;SDS011;7799;53.478;10.170;2023-04-15T01:38:54;1.40;;;1.30;;
15402;SDS011;7799;53.478;10.170;2023-04-15T01:41:23;1.37;;;1.27;;
15402;SDS011;7799;53.478;10.170;2023-04-15T01:43:52;1.40;;;1.30;;
15402;SDS011;7799;53.478;10.170;2023-04-15T01:46:19;1.80;;;1.70;;
15402;SDS011;7799;53.478;10.170;2023-04-15T01:48:46;1.43;;;1.33;;
15402;SDS011;7799;53.478;10.170;2023-04-15T01:51:12;1.60;;;1.50;;
15402;SDS011;7799;53.478;10.170;2023-04-15T01:53:40;1.33;;;1.17;;
15402;SDS011;7799;53.478;10.170;2023-04-15T01:56:07;1.37;;;1.27;;
15402;SDS011;7799;53.478;10.170;2023-04-15T01:58:37;1.37;;;1.27;;
15402;SDS011;7799;53.478;10.170;2023-04-15T02:01:05;1.23;;;1.13;;
15402;SDS011;7799;53.478;10.170;2023-04-15T02:03:34;1.33;;;1.23;;
15402;SDS011;7799;53.478;10.170;2023-04-15T02:06:01;1.60;;;1.50;;
15402;SDS011;7799;53.478;10.170;2023-04-15T02:08:28;1.60;;;1.50;;
15402;SDS011;7799;53.478;10.170;2023-04-15T02:10:55;1.57;;;1.47;;
15402;SDS011;7799;53.478;10.170;2023-04-15T02:13:23;1.73;;;1.63;;
15402;SDS011;7799;53.478;10.170;2023-04-15T02:15:49;1.63;;;1.43;;
15402;SDS011;7799;53.478;10.170;2023-04-15T02:18:19;1.70;;;1.60;;
15402;SDS011;7799;53.478;10.170;2023-04-15T02:20:46;1.60;;;1.50;;
15402;SDS011;7799;53.478;10.170;2023-04-15T02:23:13;2.00;;;1.80;;
15402;SDS011;7799;53.478;10.170;2023-04-15T02:25:42;1.90;;;1.80;;
15402;SDS011;7799;53.478;10.170;2023-04-15T02:28:09;1.60;;;1.50;;
15402;SDS011;7799;53.478;10.170;2023-04-15T02:30:35;1.87;;;1.77;;
15402;SDS011;7799;53.478;10.170;2023-04-15T02:33:02;2.40;;;2.20;;
15402;SDS011;7799;53.478;10.170;2023-04-15T02:35:31;2.00;;;1.90;;
15402;SDS011;7799;53.478;10.170;2023-04-15T02:37:57;1.97;;;1.73;;
15402;SDS011;7799;53.478;10.170;2023-04-15T02:40:25;2.50;;;2.30;;
15402;SDS011;7799;53.478;10.170;2023-04-15T02:42:52;2.23;;;2.03;;
15402;SDS011;7799;53.478;10.170;2023-04-15T02:45:19;2.53;;;2.33;;
15402;SDS011;7799;53.478;10.170;2023-04-15T02:47:48;2.30;;;2.10;;
15402;SDS011;7799;53.478;10.170;2023-04-15T02:50:15;2.47;;;2.13;;
15402;SDS011;7799;53.478;10.170;2023-04-15T02:52:43;2.17;;;1.97;;
15402;SDS011;7799;53.478;10.170;2023-04-15T02:55:10;2.77;;;2.50;;
15402;SDS011;7799;53.478;10.170;2023-04-15T02:57:37;3.00;;;2.53;;
15402;SDS011;7799;53.478;10.170;2023-04-15T03:00:07;3.37;;;3.07;;
15402;SDS011;7799;53.478;10.170;2023-04-15T03:02:38;3.43;;;3.13;;
15402;SDS011;7799;53.478;10.170;2023-04-15T03:05:09;2.83;;;2.33;;
15402;SDS011;7799;53.478;10.170;2023-04-15T03:07:38;2.67;;;2.47;;
15402;SDS011;7799;53.478;10.170;2023-04-15T03:10:07;2.23;;;2.03;;
15402;SDS011;7799;53.478;10.170;2023-04-15T03:12:35;2.70;;;2.50;;
15402;SDS011;7799;53.478;10.170;2023-04-15T03:15:02;2.17;;;1.97;;
15402;SDS011;7799;53.478;10.170;2023-04-15T03:17:35;2.50;;;2.30;;
15402;SDS011;7799;53.478;10.170;2023-04-15T03:20:03;2.43;;;2.20;;
15402;SDS011;7799;53.478;10.170;2023-04-15T03:22:31;2.53;;;2.33;;
15402;SDS011;7799;53.478;10.170;2023-04-15T03:24:58;2.43;;;2.23;;
15402;SDS011;7799;53.478;10.170;2023-04-15T03:27:26;3.07;;;2.77;;
15402;SDS011;7799;53.478;10.170;2023-04-15T03:29:56;2.93;;;2.50;;
15402;SDS011;7799;53.478;10.170;2023-04-15T03:32:24;3.17;;;2.87;;
15402;SDS011;7799;53.478;10.170;2023-04-15T03:34:52;4.00;;;3.17;;
15402;SDS011;7799;53.478;10.170;2023-04-15T03:37:19;4.03;;;3.60;;
15402;SDS011;7799;53.478;10.170;2023-04-15T03:39:45;4.23;;;3.50;;
15402;SDS011;7799;53.478;10.170;2023-04-15T03:42:12;3.70;;;3.40;;
15402;SDS011;7799;53.478;10.170;2023-04-15T03:44:40;3.43;;;3.13;;
15402;SDS011;7799;53.478;10.170;2023-04-15T03:47:07;3.93;;;3.53;;
15402;SDS011;7799;53.478;10.170;2023-04-15T03:49:34;4.83;;;4.27;;
15402;SDS011;7799;53.478;10.170;2023-04-15T03:52:01;4.10;;;3.70;;
15402;SDS011;7799;53.478;10.170;2023-04-15T03:54:28;3.67;;;3.27;;
15402;SDS011;7799;53.478;10.170;2023-04-15T03:56:54;3.70;;;3.10;;
15402;SDS011;7799;53.478;10.170;2023-04-15T03:59:21;4.17;;;3.60;;
15402;SDS011;7799;53.478;10.170;2023-04-15T04:01:50;4.43;;;3.90;;
15402;SDS011;7799;53.478;10.170;2023-04-15T04:04:16;4.70;;;4.10;;
15402;SDS011;7799;53.478;10.170;2023-04-15T04:06:43;3.83;;;3.20;;
15402;SDS011;7799;53.478;10.170;2023-04-15T04:09:10;3.87;;;3.47;;
15402;SDS011;7799;53.478;10.170;2023-04-15T04:11:36;4.20;;;3.47;;
15402;SDS011;7799;53.478;10.170;2023-04-15T04:14:03;4.00;;;3.60;;
15402;SDS011;7799;53.478;10.170;2023-04-15T04:16:30;4.07;;;3.60;;
15402;SDS011;7799;53.478;10.170;2023-04-15T04:18:58;3.90;;;3.47;;
15402;SDS011;7799;53.478;10.170;2023-04-15T04:21:25;4.77;;;4.30;;
15402;SDS011;7799;53.478;10.170;2023-04-15T04:23:52;5.13;;;4.60;;
15402;SDS011;7799;53.478;10.170;2023-04-15T04:26:18;4.50;;;4.00;;
15402;SDS011;7799;53.478;10.170;2023-04-15T04:28:45;4.93;;;4.37;;
15402;SDS011;7799;53.478;10.170;2023-04-15T04:31:12;5.10;;;4.37;;
15402;SDS011;7799;53.478;10.170;2023-04-15T04:33:39;4.97;;;4.47;;
15402;SDS011;7799;53.478;10.170;2023-04-15T04:36:07;5.77;;;4.77;;
15402;SDS011;7799;53.478;10.170;2023-04-15T04:38:34;5.17;;;4.67;;
15402;SDS011;7799;53.478;10.170;2023-04-15T04:41:01;5.37;;;4.63;;
15402;SDS011;7799;53.478;10.170;2023-04-15T04:43:27;4.97;;;4.10;;
15402;SDS011;7799;53.478;10.170;2023-04-15T04:45:54;5.83;;;5.10;;
15402;SDS011;7799;53.478;10.170;2023-04-15T04:48:21;5.27;;;4.77;;
15402;SDS011;7799;53.478;10.170;2023-04-15T04:50:47;5.20;;;4.70;;
15402;SDS011;7799;53.478;10.170;2023-04-15T04:53:16;6.10;;;4.80;;
15402;SDS011;7799;53.478;10.170;2023-04-15T04:55:42;7.27;;;5.97;;
15402;SDS011;7799;53.478;10.170;2023-04-15T04:58:09;6.47;;;5.67;;
15402;SDS011;7799;53.478;10.170;2023-04-15T05:00:36;6.27;;;5.67;;
15402;SDS011;7799;53.478;10.170;2023-04-15T05:03:03;6.63;;;5.80;;
15402;SDS011;7799;53.478;10.170;2023-04-15T05:05:30;7.40;;;6.17;;
15402;SDS011;7799;53.478;10.170;2023-04-15T05:07:57;7.67;;;6.00;;
15402;SDS011;7799;53.478;10.170;2023-04-15T05:10:25;8.53;;;6.23;;
15402;SDS011;7799;53.478;10.170;2023-04-15T05:12:52;6.60;;;5.90;;
15402;SDS011;7799;53.478;10.170;2023-04-15T05:15:18;7.47;;;5.33;;
15402;SDS011;7799;53.478;10.170;2023-04-15T05:17:45;8.90;;;6.67;;
15402;SDS011;7799;53.478;10.170;2023-04-15T05:20:12;7.17;;;6.13;;
15402;SDS011;7799;53.478;10.170;2023-04-15T05:22:39;7.00;;;6.30;;
15402;SDS011;7799;53.478;10.170;2023-04-15T05:25:06;8.40;;;6.73;;
15402;SDS011;7799;53.478;10.170;2023-04-15T05:27:35;9.30;;;7.70;;
15402;SDS011;7799;53.478;10.170;2023-04-15T05:30:02;7.33;;;6.27;;
15402;SDS011;7799;53.478;10.170;2023-04-15T05:32:29;7.57;;;6.47;;
15402;SDS011;7799;53.478;10.170;2023-04-15T05:34:56;10.13;;;6.97;;
15402;SDS011;7799;53.478;10.170;2023-04-15T05:37:22;8.87;;;7.63;;
15402;SDS011;7799;53.478;10.170;2023-04-15T05:39:49;9.30;;;7.83;;
15402;SDS011;7799;53.478;10.170;2023-04-15T05:42:16;8.03;;;6.70;;
15402;SDS011;7799;53.478;10.170;2023-04-15T05:44:44;8.00;;;7.07;;
15402;SDS011;7799;53.478;10.170;2023-04-15T05:47:11;8.07;;;7.03;;
15402;SDS011;7799;53.478;10.170;2023-04-15T05:49:37;8.17;;;7.00;;
15402;SDS011;7799;53.478;10.170;2023-04-15T05:52:04;9.30;;;6.70;;
15402;SDS011;7799;53.478;10.170;2023-04-15T05:54:31;6.10;;;5.50;;
15402;SDS011;7799;53.478;10.170;2023-04-15T05:56:58;7.10;;;6.23;;
15402;SDS011;7799;53.478;10.170;2023-04-15T05:59:25;7.63;;;6.53;;
15402;SDS011;7799;53.478;10.170;2023-04-15T06:01:53;8.03;;;7.10;;
15402;SDS011;7799;53.478;10.170;2023-04-15T06:04:20;8.87;;;7.97;;
15402;SDS011;7799;53.478;10.170;2023-04-15T06:06:47;9.37;;;8.10;;
15402;SDS011;7799;53.478;10.170;2023-04-15T06:09:14;10.33;;;9.10;;
15402;SDS011;7799;53.478;10.170;2023-04-15T06:11:41;10.23;;;8.57;;
15402;SDS011;7799;53.478;10.170;2023-04-15T06:14:08;10.17;;;9.07;;
15402;SDS011;7799;53.478;10.170;2023-04-15T06:16:35;9.43;;;8.27;;
15402;SDS011;7799;53.478;10.170;2023-04-15T06:19:03;9.80;;;8.37;;
15402;SDS011;7799;53.478;10.170;2023-04-15T06:21:30;9.47;;;8.47;;
15402;SDS011;7799;53.478;10.170;2023-04-15T06:23:57;9.10;;;7.90;;
15402;SDS011;7799;53.478;10.170;2023-04-15T06:26:24;11.03;;;8.87;;
15402;SDS011;7799;53.478;10.170;2023-04-15T06:28:51;9.27;;;7.90;;
15402;SDS011;7799;53.478;10.170;2023-04-15T06:31:18;9.33;;;8.33;;
15402;SDS011;7799;53.478;10.170;2023-04-15T06:33:44;9.83;;;8.33;;
15402;SDS011;7799;53.478;10.170;2023-04-15T06:36:13;9.63;;;8.63;;
15402;SDS011;7799;53.478;10.170;2023-04-15T06:38:39;10.47;;;8.77;;
15402;SDS011;7799;53.478;10.170;2023-04-15T06:41:06;9.47;;;7.97;;
15402;SDS011;7799;53.478;10.170;2023-04-15T06:43:33;9.23;;;8.33;;
15402;SDS011;7799;53.478;10.170;2023-04-15T06:45:59;10.50;;;9.10;;
15402;SDS011;7799;53.478;10.170;2023-04-15T06:48:26;11.73;;;10.53;;
15402;SDS011;7799;53.478;10.170;2023-04-15T06:50:53;12.43;;;10.80;;
15402;SDS011;7799;53.478;10.170;2023-04-15T06:53:21;14.73;;;12.03;;
15402;SDS011;7799;53.478;10.170;2023-04-15T06:55:48;13.70;;;10.80;;
15402;SDS011;7799;53.478;10.170;2023-04-15T06:58:15;13.00;;;10.40;;
15402;SDS011;7799;53.478;10.170;2023-04-15T07:00:41;14.93;;;12.10;;
15402;SDS011;7799;53.478;10.170;2023-04-15T07:03:08;14.37;;;11.53;;
15402;SDS011;7799;53.478;10.170;2023-04-15T07:05:38;12.07;;;10.23;;
15402;SDS011;7799;53.478;10.170;2023-04-15T07:08:04;11.10;;;9.70;;
15402;SDS011;7799;53.478;10.170;2023-04-15T07:10:33;13.23;;;11.17;;
15402;SDS011;7799;53.478;10.170;2023-04-15T07:13:00;15.63;;;12.43;;
15402;SDS011;7799;53.478;10.170;2023-04-15T07:15:27;15.77;;;12.43;;
15402;SDS011;7799;53.478;10.170;2023-04-15T07:17:53;13.70;;;11.10;;
15402;SDS011;7799;53.478;10.170;2023-04-15T07:20:20;11.17;;;8.80;;
15402;SDS011;7799;53.478;10.170;2023-04-15T07:22:47;11.60;;;9.70;;
15402;SDS011;7799;53.478;10.170;2023-04-15T07:25:14;10.33;;;9.23;;
15402;SDS011;7799;53.478;10.170;2023-04-15T07:27:43;10.00;;;8.63;;
15402;SDS011;7799;53.478;10.170;2023-04-15T07:30:10;11.13;;;8.77;;
15402;SDS011;7799;53.478;10.170;2023-04-15T07:32:37;12.27;;;10.27;;
15402;SDS011;7799;53.478;10.170;2023-04-15T07:35:04;10.47;;;8.97;;
15402;SDS011;7799;53.478;10.170;2023-04-15T07:37:31;9.30;;;8.17;;
15402;SDS011;7799;53.478;10.170;2023-04-15T07:39:57;8.97;;;7.23;;
15402;SDS011;7799;53.478;10.170;2023-04-15T07:42:24;11.17;;;9.73;;
15402;SDS011;7799;53.478;10.170;2023-04-15T07:44:53;10.33;;;8.80;;
15402;SDS011;7799;53.478;10.170;2023-04-15T07:47:20;9.47;;;7.77;;
15402;SDS011;7799;53.478;10.170;2023-04-15T07:49:46;11.13;;;9.00;;
15402;SDS011;7799;53.478;10.170;2023-04-15T07:52:13;10.73;;;8.80;;
15402;SDS011;7799;53.478;10.170;2023-04-15T07:54:40;9.80;;;8.73;;
15402;SDS011;7799;53.478;10.170;2023-04-15T07:57:06;10.37;;;9.23;;
15402;SDS011;7799;53.478;10.170;2023-04-15T07:59:33;12.93;;;10.53;;
15402;SDS011;7799;53.478;10.170;2023-04-15T08:02:01;12.10;;;9.53;;
15402;SDS011;7799;53.478;10.170;2023-04-15T08:04:28;13.37;;;10.80;;
15402;SDS011;7799;53.478;10.170;2023-04-15T08:06:55;12.67;;;10.53;;
15402;SDS011;7799;53.478;10.170;2023-04-15T08:09:22;16.23;;;13.10;;
15402;SDS011;7799;53.478;10.170;2023-04-15T08:11:48;12.73;;;11.30;;
15402;SDS011;7799;53.478;10.170;2023-04-15T08:14:15;11.87;;;10.10;;
15402;SDS011;7799;53.478;10.170;2023-04-15T08:16:42;9.77;;;8.40;;
15402;SDS011;7799;53.478;10.170;2023-04-15T08:19:10;8.97;;;8.07;;
15402;SDS011;7799;53.478;10.170;2023-04-15T08:21:37;9.57;;;8.50;;
15402;SDS011;7799;53.478;10.170;2023-04-15T08:24:05;11.50;;;9.93;;
15402;SDS011;7799;53.478;10.170;2023-04-15T08:26:32;12.67;;;11.13;;
15402;SDS011;7799;53.478;10.170;2023-04-15T08:28:58;12.17;;;10.73;;
15402;SDS011;7799;53.478;10.170;2023-04-15T08:31:25;13.57;;;10.57;;
15402;SDS011;7799;53.478;10.170;2023-04-15T08:33:54;12.90;;;10.03;;
15402;SDS011;7799;53.478;10.170;2023-04-15T08:36:23;11.00;;;9.87;;
15402;SDS011;7799;53.478;10.170;2023-04-15T08:38:51;13.03;;;10.77;;
15402;SDS011;7799;53.478;10.170;2023-04-15T08:41:20;12.93;;;10.50;;
15402;SDS011;7799;53.478;10.170;2023-04-15T08:43:50;13.50;;;11.53;;
15402;SDS011;7799;53.478;10.170;2023-04-15T08:46:18;13.47;;;11.80;;
15402;SDS011;7799;53.478;10.170;2023-04-15T08:48:45;11.87;;;10.33;;
15402;SDS011;7799;53.478;10.170;2023-04-15T08:51:13;14.93;;;13.27;;
15402;SDS011;7799;53.478;10.170;2023-04-15T08:53:42;16.00;;;14.10;;
15402;SDS011;7799;53.478;10.170;2023-04-15T08:56:09;14.57;;;12.23;;
15402;SDS011;7799;53.478;10.170;2023-04-15T08:58:37;17.30;;;13.47;;
15402;SDS011;7799;53.478;10.170;2023-04-15T09:01:04;14.40;;;12.27;;
15402;SDS011;7799;53.478;10.170;2023-04-15T09:03:31;17.13;;;14.13;;
15402;SDS011;7799;53.478;10.170;2023-04-15T09:05:58;17.93;;;14.80;;
15402;SDS011;7799;53.478;10.170;2023-04-15T09:08:25;14.77;;;12.93;;
15402;SDS011;7799;53.478;10.170;2023-04-15T09:10:53;18.20;;;15.47;;
15402;SDS011;7799;53.478;10.170;2023-04-15T09:13:20;17.80;;;14.80;;
15402;SDS011;7799;53.478;10.170;2023-04-15T09:15:47;15.57;;;12.73;;
15402;SDS011;7799;53.478;10.170;2023-04-15T09:18:21;18.50;;;15.30;;
15402;SDS011;7799;53.478;10.170;2023-04-15T09:20:53;14.90;;;12.63;;
15402;SDS011;7799;53.478;10.170;2023-04-15T09:23:20;14.47;;;12.40;;
15402;SDS011;7799;53.478;10.170;2023-04-15T09:25:47;14.60;;;12.90;;
15402;SDS011;7799;53.478;10.170;2023-04-15T09:28:22;13.37;;;11.97;;
15402;SDS011;7799;53.478;10.170;2023-04-15T09:30:50;13.43;;;11.57;;
15402;SDS011;7799;53.478;10.170;2023-04-15T09:33:17;14.80;;;12.13;;
15402;SDS011;7799;53.478;10.170;2023-04-15T09:35:50;13.60;;;11.90;;
15402;SDS011;7799;53.478;10.170;2023-04-15T09:38:22;14.07;;;12.10;;
15402;SDS011;7799;53.478;10.170;2023-04-15T09:40:48;13.17;;;11.77;;
15402;SDS011;7799;53.478;10.170;2023-04-15T09:43:17;14.17;;;12.63;;
15402;SDS011;7799;53.478;10.170;2023-04-15T09:45:46;13.53;;;12.13;;
15402;SDS011;7799;53.478;10.170;2023-04-15T09:48:14;11.73;;;10.63;;
15402;SDS011;7799;53.478;10.170;2023-04-15T09:50:42;14.67;;;13.07;;
15402;SDS011;7799;53.478;10.170;2023-04-15T09:53:09;12.27;;;10.53;;
15402;SDS011;7799;53.478;10.170;2023-04-15T09:55:36;12.30;;;11.10;;
15402;SDS011;7799;53.478;10.170;2023-04-15T09:58:07;12.77;;;11.47;;
15402;SDS011;7799;53.478;10.170;2023-04-15T10:00:36;11.30;;;10.10;;
15402;SDS011;7799;53.478;10.170;2023-04-15T10:03:04;12.60;;;11.30;;
15402;SDS011;7799;53.478;10.170;2023-04-15T10:05:31;13.43;;;12.03;;
15402;SDS011;7799;53.478;10.170;2023-04-15T10:07:58;11.27;;;10.27;;
15402;SDS011;7799;53.478;10.170;2023-04-15T10:10:26;11.13;;;10.03;;
15402;SDS011;7799;53.478;10.170;2023-04-15T10:12:53;10.10;;;9.13;;
15402;SDS011;7799;53.478;10.170;2023-04-15T10:15:21;10.77;;;9.77;;
15402;SDS011;7799;53.478;10.170;2023-04-15T10:17:50;10.37;;;9.37;;
15402;SDS011;7799;53.478;10.170;2023-04-15T10:20:18;12.50;;;11.30;;
15402;SDS011;7799;53.478;10.170;2023-04-15T10:22:46;11.83;;;10.67;;
15402;SDS011;7799;53.478;10.170;2023-04-15T10:25:13;13.43;;;12.13;;
15402;SDS011;7799;53.478;10.170;2023-04-15T10:27:40;12.83;;;11.63;;
15402;SDS011;7799;53.478;10.170;2023-04-15T10:30:07;12.40;;;11.20;;
15402;SDS011;7799;53.478;10.170;2023-04-15T10:32:35;12.43;;;11.33;;
15402;SDS011;7799;53.478;10.170;2023-04-15T10:35:05;11.37;;;10.30;;
15402;SDS011;7799;53.478;10.170;2023-04-15T10:37:34;11.40;;;10.33;;
15402;SDS011;7799;53.478;10.170;2023-04-15T10:42:51;13.67;;;12.37;;
15402;SDS011;7799;53.478;10.170;2023-04-15T10:45:19;12.50;;;11.30;;
15402;SDS011;7799;53.478;10.170;2023-04-15T10:47:45;12.07;;;10.87;;
15402;SDS011;7799;53.478;10.170;2023-04-15T10:50:18;12.33;;;11.20;;
15402;SDS011;7799;53.478;10.170;2023-04-15T10:52:49;13.33;;;12.03;;
15402;SDS011;7799;53.478;10.170;2023-04-15T10:55:17;13.50;;;12.20;;
15402;SDS011;7799;53.478;10.170;2023-04-15T10:57:46;12.73;;;11.53;;
15402;SDS011;7799;53.478;10.170;2023-04-15T11:00:13;12.43;;;11.13;;
15402;SDS011;7799;53.478;10.170;2023-04-15T11:02:42;13.43;;;12.03;;
15402;SDS011;7799;53.478;10.170;2023-04-15T11:05:11;13.43;;;11.77;;
15402;SDS011;7799;53.478;10.170;2023-04-15T11:07:49;13.50;;;12.20;;
15402;SDS011;7799;53.478;10.170;2023-04-15T11:13:21;13.20;;;11.90;;
15402;SDS011;7799;53.478;10.170;2023-04-15T11:15:59;12.77;;;11.57;;
15402;SDS011;7799;53.478;10.170;2023-04-15T11:18:31;13.87;;;12.40;;
15402;SDS011;7799;53.478;10.170;2023-04-15T11:20:59;11.70;;;10.70;;
15402;SDS011;7799;53.478;10.170;2023-04-15T11:23:33;13.83;;;12.53;;
15402;SDS011;7799;53.478;10.170;2023-04-15T11:26:01;11.93;;;10.73;;
15402;SDS011;7799;53.478;10.170;2023-04-15T11:28:30;12.57;;;11.43;;
15402;SDS011;7799;53.478;10.170;2023-04-15T11:30:57;12.23;;;11.13;;
15402;SDS011;7799;53.478;10.170;2023-04-15T11:33:24;11.93;;;10.90;;
15402;SDS011;7799;53.478;10.170;2023-04-15T11:35:51;13.10;;;11.90;;
15402;SDS011;7799;53.478;10.170;2023-04-15T11:38:18;13.70;;;12.40;;
15402;SDS011;7799;53.478;10.170;2023-04-15T11:40:47;12.60;;;11.40;;
15402;SDS011;7799;53.478;10.170;2023-04-15T11:43:14;11.30;;;10.30;;
15402;SDS011;7799;53.478;10.170;2023-04-15T11:45:49;11.30;;;10.20;;
15402;SDS011;7799;53.478;10.170;2023-04-15T11:48:18;11.07;;;10.17;;
15402;SDS011;7799;53.478;10.170;2023-04-15T11:50:51;11.30;;;10.30;;
15402;SDS011;7799;53.478;10.170;2023-04-15T11:53:18;10.37;;;9.47;;
15402;SDS011;7799;53.478;10.170;2023-04-15T11:55:47;10.70;;;9.80;;
15402;SDS011;7799;53.478;10.170;2023-04-15T11:58:16;11.90;;;10.90;;
15402;SDS011;7799;53.478;10.170;2023-04-15T12:00:46;13.47;;;12.27;;
15402;SDS011;7799;53.478;10.170;2023-04-15T12:03:18;11.90;;;10.70;;
15402;SDS011;7799;53.478;10.170;2023-04-15T12:06:09;12.87;;;11.67;;
15402;SDS011;7799;53.478;10.170;2023-04-15T12:08:48;11.90;;;10.90;;
15402;SDS011;7799;53.478;10.170;2023-04-15T12:11:29;11.50;;;10.50;;
15402;SDS011;7799;53.478;10.170;2023-04-15T12:14:14;11.47;;;10.47;;
15402;SDS011;7799;53.478;10.170;2023-04-15T12:16:44;12.13;;;11.10;;
15402;SDS011;7799;53.478;10.170;2023-04-15T12:19:13;10.03;;;9.23;;
15402;SDS011;7799;53.478;10.170;2023-04-15T12:21:43;9.67;;;8.90;;
15402;SDS011;7799;53.478;10.170;2023-04-15T12:24:11;10.00;;;9.13;;
15402;SDS011;7799;53.478;10.170;2023-04-15T12:26:43;11.17;;;10.17;;
15402;SDS011;7799;53.478;10.170;2023-04-15T12:29:11;9.47;;;8.73;;
15402;SDS011;7799;53.478;10.170;2023-04-15T12:31:45;9.47;;;8.67;;
15402;SDS011;7799;53.478;10.170;2023-04-15T12:34:13;9.73;;;8.93;;
15402;SDS011;7799;53.478;10.170;2023-04-15T12:36:40;9.63;;;8.83;;
15402;SDS011;7799;53.478;10.170;2023-04-15T12:39:07;8.63;;;7.93;;
15402;SDS011;7799;53.478;10.170;2023-04-15T12:41:34;9.07;;;8.37;;
15402;SDS011;7799;53.478;10.170;2023-04-15T12:44:02;11.07;;;10.07;;
15402;SDS011;7799;53.478;10.170;2023-04-15T12:46:29;9.80;;;8.97;;
15402;SDS011;7799;53.478;10.170;2023-04-15T12:48:56;9.50;;;8.70;;
15402;SDS011;7799;53.478;10.170;2023-04-15T12:51:23;9.37;;;8.47;;
15402;SDS011;7799;53.478;10.170;2023-04-15T12:53:51;9.07;;;8.37;;
15402;SDS011;7799;53.478;10.170;2023-04-15T12:56:18;9.73;;;8.93;;
15402;SDS011;7799;53.478;10.170;2023-04-15T12:58:45;10.53;;;9.53;;
15402;SDS011;7799;53.478;10.170;2023-04-15T13:01:13;11.13;;;10.13;;
15402;SDS011;7799;53.478;10.170;2023-04-15T13:03:39;10.17;;;9.30;;
15402;SDS011;7799;53.478;10.170;2023-04-15T13:06:06;9.90;;;9.10;;
15402;SDS011;7799;53.478;10.170;2023-04-15T13:08:33;9.70;;;8.80;;
15402;SDS011;7799;53.478;10.170;2023-04-15T13:11:00;10.00;;;9.10;;
15402;SDS011;7799;53.478;10.170;2023-04-15T13:13:26;9.67;;;8.83;;
15402;SDS011;7799;53.478;10.170;2023-04-15T13:15:53;9.10;;;8.30;;
15402;SDS011;7799;53.478;10.170;2023-04-15T13:18:21;9.80;;;9.00;;
15402;SDS011;7799;53.478;10.170;2023-04-15T13:20:49;10.77;;;9.87;;
15402;SDS011;7799;53.478;10.170;2023-04-15T13:23:16;11.60;;;10.50;;
15402;SDS011;7799;53.478;10.170;2023-04-15T13:25:43;10.17;;;9.37;;
15402;SDS011;7799;53.478;10.170;2023-04-15T13:28:10;10.33;;;9.43;;
15402;SDS011;7799;53.478;10.170;2023-04-15T13:30:37;10.67;;;9.73;;
15402;SDS011;7799;53.478;10.170;2023-04-15T13:33:04;10.70;;;9.80;;
15402;SDS011;7799;53.478;10.170;2023-04-15T13:35:33;9.60;;;8.70;;
15402;SDS011;7799;53.478;10.170;2023-04-15T13:38:00;9.40;;;8.60;;
15402;SDS011;7799;53.478;10.170;2023-04-15T13:40:26;10.20;;;9.33;;
15402;SDS011;7799;53.478;10.170;2023-04-15T13:42:53;10.00;;;9.20;;
15402;SDS011;7799;53.478;10.170;2023-04-15T13:45:20;9.90;;;9.10;;
15402;SDS011;7799;53.478;10.170;2023-04-15T13:47:47;11.20;;;10.10;;
15402;SDS011;7799;53.478;10.170;2023-04-15T13:50:13;10.73;;;9.83;;
15402;SDS011;7799;53.478;10.170;2023-04-15T13:52:41;9.93;;;9.13;;
15402;SDS011;7799;53.478;10.170;2023-04-15T13:55:08;10.43;;;9.53;;
15402;SDS011;7799;53.478;10.170;2023-04-15T13:57:35;10.47;;;9.57;;
15402;SDS011;7799;53.478;10.170;2023-04-15T14:00:02;11.37;;;10.37;;
15402;SDS011;7799;53.478;10.170;2023-04-15T14:02:31;9.67;;;8.87;;
15402;SDS011;7799;53.478;10.170;2023-04-15T14:04:58;9.77;;;8.97;;
15402;SDS011;7799;53.478;10.170;2023-04-15T14:07:25;10.67;;;9.77;;
15402;SDS011;7799;53.478;10.170;2023-04-15T14:09:55;9.33;;;8.60;;
15402;SDS011;7799;53.478;10.170;2023-04-15T14:12:21;9.60;;;8.80;;
15402;SDS011;7799;53.478;10.170;2023-04-15T14:14:48;9.07;;;8.27;;
15402;SDS011;7799;53.478;10.170;2023-04-15T14:17:15;10.00;;;9.10;;
15402;SDS011;7799;53.478;10.170;2023-04-15T14:19:42;9.80;;;9.00;;
15402;SDS011;7799;53.478;10.170;2023-04-15T14:22:08;10.17;;;9.17;;
15402;SDS011;7799;53.478;10.170;2023-04-15T14:24:35;9.83;;;8.97;;
15402;SDS011;7799;53.478;10.170;2023-04-15T14:27:03;9.20;;;8.50;;
15402;SDS011;7799;53.478;10.170;2023-04-15T14:29:32;8.73;;;8.07;;
15402;SDS011;7799;53.478;10.170;2023-04-15T14:31:59;8.63;;;7.93;;
15402;SDS011;7799;53.478;10.170;2023-04-15T14:34:26;7.90;;;7.30;;
15402;SDS011;7799;53.478;10.170;2023-04-15T14:36:53;9.47;;;8.67;;
15402;SDS011;7799;53.478;10.170;2023-04-15T14:39:19;8.57;;;7.80;;
15402;SDS011;7799;53.478;10.170;2023-04-15T14:41:46;8.73;;;8.00;;
15402;SDS011;7799;53.478;10.170;2023-04-15T14:44:14;9.30;;;8.60;;
15402;SDS011;7799;53.478;10.170;2023-04-15T14:46:41;9.90;;;9.10;;